KCAD

Wexford County Airport

Cadillac, Michigan, USA
METAR KCAD 162355Z AUTO 08005KT 10SM OVC025 M06/M08 A3008 RMK AO2 T10611088
Observed Flight Rules
Dec-16 @ 23:55 UTC (34 minutes ago) Marginal Visual Flight Rules
Wind Visibility Clouds
80° at 5 knots 10 miles
  • Overcast at 2,500' AGL
Temperatures Readings
Current -6°C / 21°F
Dewpoint -9°C / 16°F
Humidity 80%
Altimeter 30.08" Hg
Pressure 1019 hPa
Elevation 398
METAR KCAD 162355Z AUTO 08005KT 10SM OVC025 M06/M08 A3008 RMK AO2 T10611088
Observed Flight Rules
Dec-16 @ 23:55 UTC
(34 minutes ago)
MVFR
Wind Visibility
80° at 5 knots 10 miles
Clouds
  • Overcast at 2,500' AGL
Temperature Dewpoint
-6°C / 21°F -9°C / 16°F
Humidity Altimeter Pressure
80% 30.08" Hg 1019 hPa